Time;durP1;ratioP1;P1;durP2;ratioP2;P2;SDS_P1;SDS_P2;PMS_P1;PMS_P2;Temp;Humidity;BMP_temperature;BMP_pressure;BME280_temperature;BME280_humidity;BME280_pressure;Samples;Min_cycle;Max_cycle;Signal;HPM_P1;HPM_P2
2022/03/03 00:01:39;;;;;;;35.77;12.13;;;;;;;;;;4993898;28;20469;-78
2022/03/03 00:04:07;;;;;;;32.93;12.37;;;;;;;;;;4992990;28;20459;-77
2022/03/03 00:06:34;;;;;;;32.07;13.33;;;;;;;;;;4992530;28;20472;-78
2022/03/03 00:09:01;;;;;;;32.83;12.60;;;;;;;;;;4990079;28;20923;-78
2022/03/03 00:11:30;;;;;;;29.87;11.67;;;;;;;;;;4990170;28;20528;-77
2022/03/03 00:13:57;;;;;;;34.77;13.07;;;;;;;;;;4998204;28;20523;-77
2022/03/03 00:16:25;;;;;;;37.00;13.47;;;;;;;;;;5004160;28;20834;-78
2022/03/03 00:18:52;;;;;;;33.27;13.50;;;;;;;;;;4986678;28;20518;-78
2022/03/03 00:21:20;;;;;;;36.57;12.93;;;;;;;;;;4992127;28;20619;-80
2022/03/03 00:23:47;;;;;;;33.83;12.43;;;;;;;;;;4995065;28;20492;-78
2022/03/03 00:26:14;;;;;;;33.53;12.03;;;;;;;;;;4994615;28;20506;-78
2022/03/03 00:28:43;;;;;;;32.33;13.10;;;;;;;;;;5005334;28;20804;-77
2022/03/03 00:31:10;;;;;;;30.90;11.17;;;;;;;;;;4996992;28;20461;-79
2022/03/03 00:33:37;;;;;;;34.77;11.90;;;;;;;;;;4993877;28;20927;-78
2022/03/03 00:36:05;;;;;;;36.20;12.93;;;;;;;;;;4993414;28;20461;-78
2022/03/03 00:38:32;;;;;;;29.07;11.73;;;;;;;;;;4993773;28;20475;-78
2022/03/03 00:40:59;;;;;;;38.40;12.73;;;;;;;;;;4992525;28;21349;-78
2022/03/03 00:43:26;;;;;;;30.57;12.70;;;;;;;;;;4994288;28;20480;-78
2022/03/03 00:45:55;;;;;;;32.93;12.50;;;;;;;;;;4998387;28;20872;-78
2022/03/03 00:48:22;;;;;;;33.20;12.47;;;;;;;;;;4994248;28;20487;-79
2022/03/03 00:50:49;;;;;;;33.60;11.93;;;;;;;;;;4995910;28;20558;-78
2022/03/03 00:53:16;;;;;;;32.33;12.27;;;;;;;;;;4996589;28;20499;-78
2022/03/03 00:55:44;;;;;;;30.17;11.97;;;;;;;;;;4991664;28;20464;-78
2022/03/03 00:58:11;;;;;;;30.33;11.97;;;;;;;;;;4997317;28;20535;-78
2022/03/03 01:00:38;;;;;;;28.00;11.03;;;;;;;;;;4993490;28;21001;-79
2022/03/03 01:03:07;;;;;;;35.03;12.50;;;;;;;;;;4991830;28;20571;-78
2022/03/03 01:05:34;;;;;;;29.60;12.00;;;;;;;;;;4996422;28;20516;-79
2022/03/03 01:08:02;;;;;;;29.13;11.47;;;;;;;;;;4993917;28;20463;-78
2022/03/03 01:10:30;;;;;;;29.90;11.43;;;;;;;;;;4994268;28;20490;-78
2022/03/03 01:12:57;;;;;;;28.80;12.27;;;;;;;;;;4992827;28;20544;-78
2022/03/03 01:15:25;;;;;;;29.57;11.83;;;;;;;;;;4997357;28;20892;-78
2022/03/03 01:17:54;;;;;;;36.23;12.23;;;;;;;;;;4992638;28;20475;-78
2022/03/03 01:20:23;;;;;;;27.03;11.90;;;;;;;;;;4997276;28;20468;-77
2022/03/03 01:22:50;;;;;;;27.57;11.63;;;;;;;;;;4997762;28;20511;-78
2022/03/03 01:25:17;;;;;;;29.57;12.40;;;;;;;;;;4991514;28;20543;-78
2022/03/03 01:27:45;;;;;;;33.87;12.50;;;;;;;;;;4995229;28;20559;-78
2022/03/03 01:30:13;;;;;;;37.60;11.73;;;;;;;;;;4995813;28;20552;-78
2022/03/03 01:32:40;;;;;;;31.33;11.77;;;;;;;;;;4994578;28;20503;-79
2022/03/03 01:35:08;;;;;;;34.23;11.93;;;;;;;;;;4994812;28;20484;-78
2022/03/03 01:37:36;;;;;;;31.03;12.13;;;;;;;;;;4994748;28;20495;-78
2022/03/03 01:40:04;;;;;;;29.70;11.23;;;;;;;;;;4993982;28;20536;-78
2022/03/03 01:42:31;;;;;;;27.90;11.03;;;;;;;;;;4996386;28;20476;-78
2022/03/03 01:44:58;;;;;;;29.30;11.43;;;;;;;;;;4996442;28;21004;-77
2022/03/03 01:47:27;;;;;;;28.37;11.50;;;;;;;;;;4999351;28;20456;-78
2022/03/03 01:49:55;;;;;;;32.77;12.47;;;;;;;;;;4998655;28;20471;-77
2022/03/03 01:52:22;;;;;;;30.63;11.67;;;;;;;;;;4997928;28;20574;-78
2022/03/03 01:54:51;;;;;;;30.07;11.20;;;;;;;;;;4998331;28;20459;-79
2022/03/03 01:57:20;;;;;;;30.30;11.27;;;;;;;;;;5001853;28;20527;-78
2022/03/03 01:59:47;;;;;;;26.97;11.87;;;;;;;;;;5000340;28;20456;-78
2022/03/03 02:02:15;;;;;;;27.20;11.53;;;;;;;;;;4998442;28;20492;-78
2022/03/03 02:04:42;;;;;;;26.17;11.00;;;;;;;;;;4999265;28;20487;-78
2022/03/03 02:07:10;;;;;;;31.57;11.97;;;;;;;;;;4993940;28;20457;-78
2022/03/03 02:09:38;;;;;;;30.20;11.40;;;;;;;;;;5002459;28;20539;-77
2022/03/03 02:12:07;;;;;;;32.13;11.27;;;;;;;;;;5000769;28;21013;-77
2022/03/03 02:14:41;;;;;;;31.10;11.07;;;;;;;;;;4988704;28;20472;-78
2022/03/03 02:17:08;;;;;;;32.07;11.70;;;;;;;;;;4982896;28;20839;-77
2022/03/03 02:19:35;;;;;;;30.53;11.30;;;;;;;;;;4989708;28;20479;-77
2022/03/03 02:22:04;;;;;;;29.97;10.87;;;;;;;;;;4987806;28;20488;-79
2022/03/03 02:24:31;;;;;;;31.40;10.60;;;;;;;;;;4988130;28;20595;-78
2022/03/03 02:27:01;;;;;;;34.27;11.53;;;;;;;;;;4987123;28;20471;-77
2022/03/03 02:29:28;;;;;;;28.90;10.83;;;;;;;;;;4995143;28;20470;-77
2022/03/03 02:31:55;;;;;;;26.07;11.77;;;;;;;;;;4993171;28;20515;-77
2022/03/03 02:34:23;;;;;;;22.47;10.23;;;;;;;;;;4987984;28;20537;-78
2022/03/03 02:36:50;;;;;;;29.13;11.87;;;;;;;;;;4992082;28;20471;-79
2022/03/03 02:39:19;;;;;;;29.80;11.20;;;;;;;;;;4991118;28;21914;-80
2022/03/03 02:41:46;;;;;;;34.90;12.67;;;;;;;;;;4994969;28;20563;-78
2022/03/03 02:44:13;;;;;;;29.37;10.67;;;;;;;;;;4994873;28;20479;-79
2022/03/03 02:46:40;;;;;;;29.43;11.40;;;;;;;;;;5002735;28;20482;-79
2022/03/03 02:49:08;;;;;;;35.07;12.10;;;;;;;;;;5004735;28;20504;-77
2022/03/03 02:51:36;;;;;;;31.27;12.70;;;;;;;;;;4981095;28;20461;-78
2022/03/03 02:54:03;;;;;;;31.53;12.00;;;;;;;;;;4980893;28;20539;-79
2022/03/03 02:57:53;;;;;;;30.67;12.00;;;;;;;;;;4981843;28;20555;-79
2022/03/03 02:59:18;;;;;;;37.40;11.63;;;;;;;;;;4979274;28;20798;-79
2022/03/03 03:01:45;;;;;;;36.63;12.20;;;;;;;;;;4980220;28;20487;-79
2022/03/03 03:04:13;;;;;;;31.93;11.73;;;;;;;;;;4981508;28;20495;-79
2022/03/03 03:06:40;;;;;;;30.13;12.27;;;;;;;;;;4977706;28;20828;-79
2022/03/03 03:09:07;;;;;;;29.97;11.50;;;;;;;;;;4984940;28;20994;-79
2022/03/03 03:11:35;;;;;;;33.40;12.13;;;;;;;;;;4987697;28;20997;-79
2022/03/03 03:14:03;;;;;;;31.67;11.77;;;;;;;;;;4985374;28;20452;-79
2022/03/03 03:16:30;;;;;;;39.90;11.60;;;;;;;;;;4981285;28;20506;-77
2022/03/03 03:18:57;;;;;;;30.67;11.30;;;;;;;;;;4979421;28;20464;-77
2022/03/03 03:21:24;;;;;;;25.17;10.27;;;;;;;;;;4978449;28;20527;-77
2022/03/03 03:23:51;;;;;;;28.60;11.13;;;;;;;;;;4978248;28;20492;-77
2022/03/03 03:26:18;;;;;;;34.93;11.10;;;;;;;;;;4980010;28;20470;-77
2022/03/03 03:28:47;;;;;;;32.17;12.07;;;;;;;;;;4978225;28;20468;-77
2022/03/03 03:31:14;;;;;;;32.97;11.53;;;;;;;;;;4980820;28;20484;-76
2022/03/03 03:33:41;;;;;;;28.10;10.93;;;;;;;;;;4981145;28;20928;-78
2022/03/03 03:36:08;;;;;;;26.33;10.00;;;;;;;;;;4975924;28;20962;-77
2022/03/03 03:38:35;;;;;;;32.37;11.33;;;;;;;;;;4978907;28;20955;-77
2022/03/03 03:41:03;;;;;;;29.20;11.00;;;;;;;;;;4980520;28;20488;-78
2022/03/03 03:43:30;;;;;;;24.50;10.53;;;;;;;;;;4979393;28;20852;-78
2022/03/03 03:45:58;;;;;;;32.37;11.97;;;;;;;;;;4977080;28;20465;-77
2022/03/03 03:48:26;;;;;;;29.90;9.70;;;;;;;;;;4980093;28;20897;-78
2022/03/03 03:50:53;;;;;;;35.30;11.57;;;;;;;;;;4980000;28;20458;-78
2022/03/03 03:53:20;;;;;;;27.97;10.97;;;;;;;;;;4980714;28;20860;-77
2022/03/03 03:55:47;;;;;;;29.83;10.57;;;;;;;;;;4973948;28;20572;-77
2022/03/03 03:58:14;;;;;;;29.87;10.90;;;;;;;;;;4980580;28;20456;-77
2022/03/03 04:00:41;;;;;;;28.70;10.77;;;;;;;;;;4978801;28;20488;-78
2022/03/03 04:05:51;;;;;;;29.33;10.30;;;;;;;;;;4975984;28;20563;-77
2022/03/03 04:08:19;;;;;;;27.67;10.07;;;;;;;;;;4984041;28;20858;-78
2022/03/03 04:10:47;;;;;;;24.67;8.60;;;;;;;;;;4981108;28;20528;-78
2022/03/03 04:13:15;;;;;;;29.33;10.00;;;;;;;;;;4983971;28;20484;-78
2022/03/03 04:15:42;;;;;;;27.17;10.00;;;;;;;;;;4983062;28;20526;-77
2022/03/03 04:18:11;;;;;;;22.90;9.57;;;;;;;;;;4986096;28;20466;-77
2022/03/03 04:20:38;;;;;;;28.40;10.87;;;;;;;;;;4985980;28;20522;-78
2022/03/03 04:23:05;;;;;;;37.07;11.40;;;;;;;;;;4982610;28;20502;-78
2022/03/03 04:25:33;;;;;;;26.67;10.60;;;;;;;;;;4980366;28;20458;-77
2022/03/03 04:28:02;;;;;;;31.43;10.53;;;;;;;;;;4981326;28;20453;-77
2022/03/03 04:30:29;;;;;;;24.60;10.27;;;;;;;;;;4979625;28;20505;-77
2022/03/03 04:32:57;;;;;;;30.87;11.13;;;;;;;;;;4981574;28;20531;-77
2022/03/03 04:35:26;;;;;;;26.57;10.30;;;;;;;;;;4988765;28;20471;-78
2022/03/03 04:37:53;;;;;;;32.87;10.30;;;;;;;;;;4988488;28;20848;-77
2022/03/03 04:40:20;;;;;;;26.53;10.80;;;;;;;;;;4981046;28;20551;-77
2022/03/03 04:42:47;;;;;;;27.23;10.00;;;;;;;;;;4982863;28;21057;-77
2022/03/03 04:45:14;;;;;;;27.57;11.20;;;;;;;;;;4982110;28;20472;-77
2022/03/03 04:47:42;;;;;;;31.67;11.43;;;;;;;;;;4980332;28;20491;-77
2022/03/03 04:50:10;;;;;;;35.20;10.97;;;;;;;;;;4978810;28;20500;-78
2022/03/03 04:52:39;;;;;;;27.93;9.70;;;;;;;;;;4983017;28;20468;-77
2022/03/03 04:55:06;;;;;;;30.37;10.40;;;;;;;;;;4982229;28;20897;-78
2022/03/03 04:57:34;;;;;;;29.00;10.97;;;;;;;;;;4981972;28;20500;-77
2022/03/03 05:00:01;;;;;;;24.33;10.10;;;;;;;;;;4980582;28;20544;-77
2022/03/03 05:02:28;;;;;;;28.23;10.73;;;;;;;;;;4980416;28;20585;-77
2022/03/03 05:07:44;;;;;;;32.87;10.57;;;;;;;;;;4974050;28;21487;-78
2022/03/03 05:10:11;;;;;;;26.87;9.93;;;;;;;;;;4980351;28;20461;-78
2022/03/03 05:12:39;;;;;;;34.53;10.73;;;;;;;;;;4983389;28;20477;-78
2022/03/03 05:15:08;;;;;;;31.50;10.30;;;;;;;;;;4982931;28;20472;-78
2022/03/03 05:17:35;;;;;;;23.50;9.30;;;;;;;;;;4984958;28;20464;-79
2022/03/03 05:20:02;;;;;;;24.43;9.47;;;;;;;;;;4990217;28;20456;-78
2022/03/03 05:22:41;;;;;;;25.07;9.97;;;;;;;;;;4984567;28;20586;-78
2022/03/03 05:25:11;;;;;;;24.47;9.20;;;;;;;;;;4989003;28;20869;-78
2022/03/03 05:27:39;;;;;;;33.47;10.50;;;;;;;;;;4982535;28;20490;-79
2022/03/03 05:30:09;;;;;;;28.50;10.03;;;;;;;;;;4978260;28;20884;-78
2022/03/03 05:32:36;;;;;;;29.37;10.23;;;;;;;;;;4979345;28;20572;-78
2022/03/03 05:35:03;;;;;;;27.53;9.87;;;;;;;;;;4977231;28;20457;-78
2022/03/03 05:37:31;;;;;;;25.67;10.07;;;;;;;;;;4983760;28;20461;-78
2022/03/03 05:39:58;;;;;;;26.27;10.60;;;;;;;;;;4980140;28;21037;-78
2022/03/03 05:42:26;;;;;;;28.83;10.43;;;;;;;;;;4982473;28;20484;-78
2022/03/03 05:44:54;;;;;;;29.20;10.67;;;;;;;;;;4976692;28;20536;-78
2022/03/03 05:47:21;;;;;;;28.97;10.93;;;;;;;;;;4982497;28;20462;-78
2022/03/03 05:49:50;;;;;;;26.90;9.70;;;;;;;;;;4981894;28;20473;-78
2022/03/03 05:52:17;;;;;;;25.03;9.77;;;;;;;;;;4979179;28;20472;-78
2022/03/03 05:54:45;;;;;;;23.50;9.90;;;;;;;;;;4981188;28;20452;-78
2022/03/03 05:57:14;;;;;;;26.53;9.97;;;;;;;;;;4976308;28;20488;-79
2022/03/03 05:59:43;;;;;;;26.37;10.50;;;;;;;;;;4985413;28;20476;-77
2022/03/03 06:02:11;;;;;;;25.03;9.90;;;;;;;;;;4987532;28;20492;-78
2022/03/03 06:04:39;;;;;;;32.77;10.13;;;;;;;;;;4990130;28;20555;-78
2022/03/03 06:07:08;;;;;;;26.20;9.43;;;;;;;;;;4980612;28;20848;-78
2022/03/03 06:09:35;;;;;;;27.07;10.47;;;;;;;;;;4980772;28;20523;-79
2022/03/03 06:12:06;;;;;;;27.73;9.63;;;;;;;;;;4980506;28;20832;-78
2022/03/03 06:14:37;;;;;;;26.30;10.07;;;;;;;;;;4985087;28;20908;-78
2022/03/03 06:17:06;;;;;;;30.00;10.73;;;;;;;;;;4981057;28;20460;-77
2022/03/03 06:19:39;;;;;;;23.73;9.97;;;;;;;;;;4982285;28;20564;-77
2022/03/03 06:22:06;;;;;;;26.60;10.33;;;;;;;;;;4980011;28;20492;-78
2022/03/03 06:27:31;;;;;;;30.00;11.57;;;;;;;;;;4977500;28;20728;-79
2022/03/03 06:29:58;;;;;;;32.37;12.50;;;;;;;;;;4988169;28;20866;-78
2022/03/03 06:32:27;;;;;;;37.40;13.57;;;;;;;;;;4987816;28;20475;-78
2022/03/03 06:34:54;;;;;;;37.53;13.07;;;;;;;;;;5002418;28;20448;-79
2022/03/03 06:37:21;;;;;;;40.57;13.50;;;;;;;;;;5006421;28;20473;-79
2022/03/03 06:39:48;;;;;;;32.30;12.77;;;;;;;;;;5005243;28;20464;-79
2022/03/03 06:42:16;;;;;;;29.97;11.33;;;;;;;;;;4999777;28;20556;-78
2022/03/03 06:44:43;;;;;;;41.00;11.00;;;;;;;;;;5009262;28;20455;-78
2022/03/03 06:47:10;;;;;;;30.93;10.90;;;;;;;;;;4996664;28;20473;-79
2022/03/03 06:49:38;;;;;;;33.13;13.03;;;;;;;;;;4990936;28;20913;-78
2022/03/03 06:52:08;;;;;;;36.87;12.90;;;;;;;;;;4976177;28;20985;-79
2022/03/03 06:54:36;;;;;;;29.00;12.80;;;;;;;;;;4991132;28;20461;-77
2022/03/03 06:57:03;;;;;;;34.03;13.37;;;;;;;;;;4988393;28;20486;-79
2022/03/03 06:59:33;;;;;;;33.00;13.47;;;;;;;;;;4988791;28;21050;-78
2022/03/03 07:02:00;;;;;;;35.73;13.50;;;;;;;;;;4986313;28;20546;-77
2022/03/03 07:04:32;;;;;;;33.30;12.67;;;;;;;;;;4986173;28;20500;-77
2022/03/03 07:07:01;;;;;;;32.90;12.00;;;;;;;;;;4983415;28;20456;-79
2022/03/03 07:09:30;;;;;;;32.93;13.20;;;;;;;;;;4983417;28;20956;-78
2022/03/03 07:11:59;;;;;;;33.90;13.63;;;;;;;;;;4987376;28;21041;-80
2022/03/03 07:14:26;;;;;;;51.17;17.33;;;;;;;;;;4982167;28;20488;-79
2022/03/03 07:16:59;;;;;;;54.43;16.27;;;;;;;;;;4980222;28;20551;-79
2022/03/03 07:19:34;;;;;;;38.50;15.50;;;;;;;;;;4985440;28;20498;-78
2022/03/03 07:22:11;;;;;;;41.83;15.17;;;;;;;;;;4983141;28;20513;-78
2022/03/03 07:24:44;;;;;;;33.43;13.07;;;;;;;;;;4982772;28;20469;-79
2022/03/03 07:27:16;;;;;;;36.17;13.37;;;;;;;;;;4979438;28;20880;-79
2022/03/03 07:29:44;;;;;;;38.80;13.73;;;;;;;;;;4978448;28;20563;-78
2022/03/03 07:32:11;;;;;;;38.13;13.47;;;;;;;;;;4978723;28;20487;-78
2022/03/03 07:34:40;;;;;;;36.33;12.83;;;;;;;;;;4981605;28;20587;-78
2022/03/03 07:37:09;;;;;;;35.00;12.53;;;;;;;;;;4969049;28;20589;-77
2022/03/03 07:39:40;;;;;;;35.63;13.60;;;;;;;;;;4975252;28;20815;-77
2022/03/03 07:42:09;;;;;;;31.60;13.60;;;;;;;;;;4974129;28;20497;-77
2022/03/03 07:44:36;;;;;;;30.17;12.43;;;;;;;;;;4976438;28;20932;-77
2022/03/03 07:47:04;;;;;;;30.60;12.70;;;;;;;;;;4977438;28;20469;-77
2022/03/03 07:49:31;;;;;;;41.53;12.47;;;;;;;;;;4982637;28;20473;-77
2022/03/03 07:51:59;;;;;;;35.57;13.33;;;;;;;;;;4985419;28;20488;-77
2022/03/03 07:54:27;;;;;;;32.23;12.63;;;;;;;;;;4992985;28;20534;-77
2022/03/03 07:56:57;;;;;;;30.77;12.47;;;;;;;;;;4986743;28;20465;-78
2022/03/03 07:59:29;;;;;;;30.10;12.60;;;;;;;;;;4986790;28;20557;-78
2022/03/03 08:01:58;;;;;;;30.93;11.40;;;;;;;;;;4985201;28;20503;-76
2022/03/03 08:04:28;;;;;;;22.77;10.40;;;;;;;;;;4989441;28;20220;-79
2022/03/03 08:06:57;;;;;;;23.80;10.00;;;;;;;;;;4989267;28;20507;-78
2022/03/03 08:09:24;;;;;;;23.27;10.70;;;;;;;;;;4989653;28;20205;-76
2022/03/03 08:11:54;;;;;;;28.47;10.93;;;;;;;;;;4985092;28;20217;-79
2022/03/03 08:14:22;;;;;;;20.77;10.07;;;;;;;;;;4986859;28;20207;-77
2022/03/03 08:16:49;;;;;;;22.23;11.33;;;;;;;;;;4988378;28;20217;-77
2022/03/03 08:19:17;;;;;;;22.00;10.37;;;;;;;;;;4988317;28;20234;-78
2022/03/03 08:21:45;;;;;;;21.53;10.37;;;;;;;;;;4982568;28;20252;-76
2022/03/03 08:24:13;;;;;;;19.27;9.70;;;;;;;;;;4985049;28;20232;-78
2022/03/03 08:26:42;;;;;;;17.07;9.73;;;;;;;;;;4986642;28;20213;-79
2022/03/03 08:29:11;;;;;;;19.50;9.93;;;;;;;;;;4984340;28;20213;-78
2022/03/03 08:31:40;;;;;;;17.93;9.13;;;;;;;;;;4983720;28;20216;-76
2022/03/03 08:34:12;;;;;;;22.10;9.93;;;;;;;;;;4984673;28;20273;-77
2022/03/03 08:36:44;;;;;;;18.23;9.77;;;;;;;;;;4984899;28;20732;-79
2022/03/03 08:39:13;;;;;;;23.90;10.97;;;;;;;;;;4958200;28;20228;-79
2022/03/03 08:41:41;;;;;;;21.73;10.53;;;;;;;;;;4986141;28;20198;-79
2022/03/03 08:44:08;;;;;;;21.77;10.23;;;;;;;;;;4983641;28;20205;-79
2022/03/03 08:46:38;;;;;;;22.03;10.87;;;;;;;;;;4985414;28;20270;-79
2022/03/03 08:49:06;;;;;;;25.80;11.77;;;;;;;;;;4985663;28;20638;-77
2022/03/03 08:51:33;;;;;;;19.67;10.73;;;;;;;;;;4981172;28;20210;-77
2022/03/03 08:54:01;;;;;;;21.10;10.43;;;;;;;;;;4985080;28;20280;-78
2022/03/03 08:56:28;;;;;;;19.37;10.43;;;;;;;;;;4985787;28;20237;-79
2022/03/03 08:58:55;;;;;;;19.00;10.63;;;;;;;;;;4985655;28;20272;-80
2022/03/03 09:01:23;;;;;;;22.20;10.63;;;;;;;;;;4987044;28;20236;-80
2022/03/03 09:03:52;;;;;;;18.40;10.60;;;;;;;;;;4984732;28;20239;-75
2022/03/03 09:06:20;;;;;;;24.10;11.23;;;;;;;;;;4982725;28;20933;-77
2022/03/03 09:08:47;;;;;;;24.30;12.47;;;;;;;;;;4982308;28;20216;-79
2022/03/03 09:11:15;;;;;;;22.07;11.97;;;;;;;;;;4980130;28;20748;-77
2022/03/03 09:13:42;;;;;;;23.67;12.20;;;;;;;;;;4983395;28;20795;-79
2022/03/03 09:16:09;;;;;;;36.03;13.87;;;;;;;;;;4978468;28;20205;-79
2022/03/03 09:18:36;;;;;;;25.03;12.43;;;;;;;;;;4985884;28;20235;-78
2022/03/03 09:21:05;;;;;;;26.97;12.43;;;;;;;;;;4985738;28;20327;-78
2022/03/03 09:23:32;;;;;;;30.70;12.23;;;;;;;;;;4982008;28;21453;-79
2022/03/03 09:25:59;;;;;;;25.77;11.73;;;;;;;;;;4985453;28;20236;-78
2022/03/03 09:28:26;;;;;;;30.63;12.20;;;;;;;;;;4983464;28;20279;-79
2022/03/03 09:30:56;;;;;;;24.23;11.30;;;;;;;;;;4981601;28;20233;-79
2022/03/03 09:33:23;;;;;;;25.13;11.63;;;;;;;;;;4983513;28;20243;-80
2022/03/03 09:35:50;;;;;;;26.27;11.23;;;;;;;;;;4973545;28;20687;-79
2022/03/03 09:38:19;;;;;;;26.23;11.20;;;;;;;;;;4974084;28;20233;-79
2022/03/03 09:40:48;;;;;;;28.20;11.97;;;;;;;;;;4976422;28;20301;-78
2022/03/03 09:43:15;;;;;;;23.70;11.07;;;;;;;;;;4982994;28;20232;-77
2022/03/03 09:45:42;;;;;;;26.10;11.00;;;;;;;;;;4982848;28;20205;-79
2022/03/03 09:48:10;;;;;;;23.20;11.60;;;;;;;;;;4983201;28;20288;-77
2022/03/03 09:50:38;;;;;;;32.43;12.33;;;;;;;;;;4981652;28;20227;-76
2022/03/03 09:53:07;;;;;;;29.63;12.43;;;;;;;;;;4977900;28;20236;-76
2022/03/03 09:55:35;;;;;;;28.20;12.30;;;;;;;;;;4983194;28;20282;-77
2022/03/03 09:58:03;;;;;;;30.37;13.23;;;;;;;;;;4979510;28;20303;-77
2022/03/03 10:00:33;;;;;;;25.23;12.00;;;;;;;;;;4979745;28;20665;-76
2022/03/03 10:03:07;;;;;;;25.23;11.63;;;;;;;;;;4978856;28;20264;-77
2022/03/03 10:05:36;;;;;;;28.17;12.50;;;;;;;;;;4980834;28;20271;-78
2022/03/03 10:08:04;;;;;;;30.83;12.73;;;;;;;;;;4982806;28;20303;-77
2022/03/03 10:10:31;;;;;;;31.73;12.70;;;;;;;;;;4980892;28;20683;-78
2022/03/03 10:13:00;;;;;;;35.40;13.57;;;;;;;;;;4985949;28;20758;-79
2022/03/03 10:15:28;;;;;;;29.93;11.90;;;;;;;;;;4983565;28;20197;-78
2022/03/03 10:18:00;;;;;;;23.87;11.07;;;;;;;;;;4981784;28;20309;-78
2022/03/03 10:20:28;;;;;;;25.90;11.27;;;;;;;;;;4984318;28;20293;-78
2022/03/03 10:22:58;;;;;;;21.70;11.00;;;;;;;;;;4988103;28;20679;-79
2022/03/03 10:25:29;;;;;;;26.60;12.00;;;;;;;;;;4987589;28;20211;-78
2022/03/03 10:27:56;;;;;;;22.80;10.17;;;;;;;;;;4989660;28;20213;-78
2022/03/03 10:30:25;;;;;;;24.87;11.00;;;;;;;;;;4988652;28;20232;-78
2022/03/03 10:32:52;;;;;;;18.43;9.67;;;;;;;;;;5009159;23;20266;-78
2022/03/03 10:35:20;;;;;;;23.93;10.27;;;;;;;;;;5000237;28;20244;-78
2022/03/03 10:37:49;;;;;;;24.10;11.10;;;;;;;;;;4998317;28;20631;-78
2022/03/03 10:40:17;;;;;;;20.23;9.57;;;;;;;;;;5003064;28;20211;-78
2022/03/03 10:42:46;;;;;;;20.80;9.63;;;;;;;;;;5006163;28;20232;-78
2022/03/03 10:45:17;;;;;;;20.97;9.83;;;;;;;;;;4997563;28;20205;-79
2022/03/03 10:47:59;;;;;;;16.10;9.13;;;;;;;;;;5001356;28;20278;-79
2022/03/03 10:50:26;;;;;;;18.37;9.50;;;;;;;;;;5002797;28;20284;-78
2022/03/03 10:52:54;;;;;;;18.10;8.83;;;;;;;;;;5001439;28;20223;-78
2022/03/03 10:55:21;;;;;;;17.63;9.07;;;;;;;;;;4999018;28;20743;-78
2022/03/03 10:57:49;;;;;;;48.50;10.87;;;;;;;;;;5000413;28;20227;-78
2022/03/03 11:00:18;;;;;;;21.07;8.80;;;;;;;;;;4997378;28;20204;-78
2022/03/03 11:02:48;;;;;;;16.83;8.67;;;;;;;;;;5000602;28;20286;-78
2022/03/03 11:05:15;;;;;;;16.30;8.47;;;;;;;;;;4999911;28;20553;-78
2022/03/03 11:07:43;;;;;;;19.47;9.30;;;;;;;;;;5000284;28;20231;-78
2022/03/03 11:10:12;;;;;;;16.30;8.53;;;;;;;;;;5000738;28;20311;-78
2022/03/03 11:12:40;;;;;;;19.20;8.67;;;;;;;;;;4999912;28;20307;-78
2022/03/03 11:15:08;;;;;;;18.13;8.70;;;;;;;;;;4998274;28;20267;-77
2022/03/03 11:17:35;;;;;;;16.80;9.03;;;;;;;;;;4997540;28;20211;-78
2022/03/03 11:20:05;;;;;;;16.30;8.87;;;;;;;;;;4999349;28;20738;-78
2022/03/03 11:22:32;;;;;;;28.47;9.97;;;;;;;;;;4999734;28;20221;-78
2022/03/03 11:25:00;;;;;;;17.87;8.57;;;;;;;;;;5004204;28;20558;-78
2022/03/03 11:27:37;;;;;;;16.57;8.33;;;;;;;;;;5002586;28;20286;-77
2022/03/03 11:30:14;;;;;;;21.03;8.80;;;;;;;;;;5002615;28;20349;-77
2022/03/03 11:32:42;;;;;;;19.23;8.47;;;;;;;;;;5006001;28;20232;-78
2022/03/03 11:35:11;;;;;;;18.90;9.07;;;;;;;;;;5002808;28;20299;-77
2022/03/03 11:37:42;;;;;;;14.00;8.03;;;;;;;;;;5002249;28;20743;-78
2022/03/03 11:40:11;;;;;;;18.17;8.73;;;;;;;;;;5003453;28;20222;-77
2022/03/03 11:42:39;;;;;;;14.37;7.67;;;;;;;;;;5002825;28;20221;-78
2022/03/03 11:45:31;;;;;;;14.47;7.73;;;;;;;;;;5007822;28;20208;-78
2022/03/03 11:48:10;;;;;;;17.53;7.80;;;;;;;;;;5003145;28;20212;-77
2022/03/03 11:50:38;;;;;;;14.87;7.90;;;;;;;;;;5004764;28;20586;-78
2022/03/03 11:53:22;;;;;;;13.40;7.00;;;;;;;;;;5002815;28;20231;-78
2022/03/03 11:55:50;;;;;;;15.87;7.97;;;;;;;;;;5001655;28;20291;-78
2022/03/03 11:58:18;;;;;;;14.33;7.27;;;;;;;;;;5004587;28;20236;-78
2022/03/03 12:00:46;;;;;;;15.43;7.27;;;;;;;;;;5003095;28;20292;-78
2022/03/03 12:03:15;;;;;;;14.03;7.40;;;;;;;;;;5004435;28;20224;-77
2022/03/03 12:05:47;;;;;;;14.23;7.60;;;;;;;;;;5004459;28;20274;-78
2022/03/03 12:08:31;;;;;;;15.37;7.50;;;;;;;;;;5004104;28;20617;-78
2022/03/03 12:10:59;;;;;;;13.40;7.70;;;;;;;;;;5002978;28;20219;-78
2022/03/03 12:13:28;;;;;;;16.93;8.10;;;;;;;;;;5003489;28;20256;-78
2022/03/03 12:16:28;;;;;;;18.20;9.83;;;;;;;;;;5006084;28;20697;-78
2022/03/03 12:19:15;;;;;;;17.83;8.33;;;;;;;;;;4951244;28;20206;-78
2022/03/03 12:21:44;;;;;;;18.40;9.10;;;;;;;;;;4941092;28;20206;-79
2022/03/03 12:24:28;;;;;;;14.03;8.03;;;;;;;;;;4985243;28;20224;-78
2022/03/03 12:27:02;;;;;;;19.27;8.47;;;;;;;;;;4999270;28;20207;-78
2022/03/03 12:29:30;;;;;;;16.60;8.53;;;;;;;;;;5002993;28;20219;-78
2022/03/03 12:31:58;;;;;;;16.40;7.67;;;;;;;;;;5002222;28;20236;-79
2022/03/03 12:34:26;;;;;;;16.30;7.97;;;;;;;;;;5004562;28;20232;-78
2022/03/03 12:36:56;;;;;;;17.13;7.23;;;;;;;;;;5001769;28;20201;-77
2022/03/03 12:39:23;;;;;;;13.80;6.97;;;;;;;;;;5006036;28;20239;-78
2022/03/03 12:41:54;;;;;;;13.67;6.93;;;;;;;;;;5006242;28;20307;-78
2022/03/03 12:44:21;;;;;;;13.97;6.97;;;;;;;;;;5000633;28;20240;-77
2022/03/03 12:46:48;;;;;;;11.93;6.70;;;;;;;;;;5002664;28;20216;-79
2022/03/03 12:49:17;;;;;;;15.67;8.07;;;;;;;;;;5003767;28;20211;-79
2022/03/03 12:51:45;;;;;;;14.47;7.83;;;;;;;;;;5002871;28;20209;-78
2022/03/03 12:54:14;;;;;;;14.57;7.33;;;;;;;;;;5008645;28;20201;-78
2022/03/03 12:56:41;;;;;;;14.90;7.63;;;;;;;;;;5006483;28;20330;-79
2022/03/03 12:59:09;;;;;;;14.80;7.93;;;;;;;;;;5002852;28;20200;-79
2022/03/03 13:01:37;;;;;;;15.93;7.80;;;;;;;;;;5002921;28;20654;-80
2022/03/03 13:04:05;;;;;;;17.73;7.80;;;;;;;;;;5007869;28;20728;-77
2022/03/03 13:06:33;;;;;;;15.27;8.30;;;;;;;;;;5011588;28;20224;-80
2022/03/03 13:09:01;;;;;;;15.90;8.37;;;;;;;;;;5010480;28;20227;-82
2022/03/03 13:11:30;;;;;;;75.57;35.97;;;;;;;;;;5003352;28;20275;-79
2022/03/03 13:14:01;;;;;;;18.20;9.97;;;;;;;;;;5003837;28;20310;-78
2022/03/03 13:16:29;;;;;;;19.07;8.93;;;;;;;;;;5012989;28;20270;-78
2022/03/03 13:18:56;;;;;;;15.90;8.47;;;;;;;;;;5012531;28;20208;-77
2022/03/03 13:21:27;;;;;;;14.23;7.93;;;;;;;;;;5014299;28;20726;-77
2022/03/03 13:23:56;;;;;;;13.73;7.83;;;;;;;;;;5012960;28;20316;-77
2022/03/03 13:26:25;;;;;;;17.57;10.77;;;;;;;;;;5012546;28;20197;-77
2022/03/03 13:28:55;;;;;;;18.33;11.10;;;;;;;;;;5013267;28;20290;-78
2022/03/03 13:31:23;;;;;;;13.97;7.13;;;;;;;;;;5001633;28;20213;-77
2022/03/03 13:33:52;;;;;;;13.73;7.10;;;;;;;;;;5011981;28;20529;-78
2022/03/03 13:36:20;;;;;;;17.40;7.27;;;;;;;;;;5012225;28;20292;-79
2022/03/03 13:38:48;;;;;;;16.37;6.60;;;;;;;;;;5010205;28;20235;-78
2022/03/03 13:41:25;;;;;;;11.30;6.13;;;;;;;;;;5016366;28;20211;-78
2022/03/03 13:44:07;;;;;;;14.43;6.30;;;;;;;;;;5017801;28;20315;-78
2022/03/03 13:46:36;;;;;;;12.63;6.00;;;;;;;;;;5013720;28;20259;-78
2022/03/03 13:49:03;;;;;;;10.77;5.90;;;;;;;;;;5019188;28;20213;-79
2022/03/03 13:51:30;;;;;;;10.60;5.63;;;;;;;;;;5014471;28;20196;-78
2022/03/03 13:53:58;;;;;;;11.80;5.53;;;;;;;;;;5014131;28;20228;-76
2022/03/03 13:56:30;;;;;;;9.20;4.97;;;;;;;;;;5004685;28;20251;-78
2022/03/03 13:59:07;;;;;;;8.67;4.93;;;;;;;;;;5012017;28;20211;-77
2022/03/03 14:01:36;;;;;;;11.60;5.17;;;;;;;;;;5004160;28;20192;-78
2022/03/03 14:04:13;;;;;;;9.30;5.27;;;;;;;;;;5005460;28;20221;-77
2022/03/03 14:06:41;;;;;;;10.13;5.17;;;;;;;;;;5001587;28;20291;-77
2022/03/03 14:09:08;;;;;;;9.40;5.10;;;;;;;;;;5012335;28;20247;-78
2022/03/03 14:11:35;;;;;;;9.23;4.93;;;;;;;;;;5011382;28;20741;-77
2022/03/03 14:14:02;;;;;;;9.80;5.10;;;;;;;;;;5011525;28;20204;-77
2022/03/03 14:16:32;;;;;;;11.73;5.37;;;;;;;;;;5007727;28;20591;-77
2022/03/03 14:19:01;;;;;;;10.47;5.00;;;;;;;;;;5014813;28;20208;-78
2022/03/03 14:21:28;;;;;;;10.07;5.30;;;;;;;;;;5011718;28;20277;-77
2022/03/03 14:23:55;;;;;;;10.93;5.77;;;;;;;;;;4998381;28;20352;-76
2022/03/03 14:26:24;;;;;;;11.10;5.83;;;;;;;;;;5009610;28;20270;-77
2022/03/03 14:28:51;;;;;;;10.97;6.40;;;;;;;;;;5011978;28;20213;-77
2022/03/03 14:31:20;;;;;;;10.10;6.10;;;;;;;;;;5011836;28;20243;-77
2022/03/03 14:33:47;;;;;;;14.83;5.63;;;;;;;;;;5011766;28;20220;-78
2022/03/03 14:36:18;;;;;;;11.80;6.10;;;;;;;;;;4999990;28;20339;-78
2022/03/03 14:38:45;;;;;;;10.37;5.60;;;;;;;;;;5007430;28;20232;-77